Strona główna
Zdjęcia satelitarne 15-dni prognozyKlimatMeteorologia morska Cyklony Błyskawica LotniskoFAQ Gazetka O
Pogoda : Europa Afryka Ameryka Północna Ameryka Południowa Azja Australia-Oceania Inny
Języki Kontakt

Kraków, Polska

Balice

Szerokość geograficzna: 50-05N, Długość geograficzna: 019-48E, wysokość: 237 m


METAR: EPKK 272230Z 05007KT 4000 BR BKN008 M01/M02 Q1019
TAF: EPKK 272004Z 2720/2818 06007KT 6000 SCT013 TEMPO 2720/2808 1300 BR BKN005 BKN011

czas: 23:44 (22:44 UTC)

Aktualna obserwacja pogody

Raport powstał 14 minut temu, godzina 22:30 UTC
Wiatr 7 kt od północny wschód
Temperatura -1°C
Wilgotność 93%
Ciśnienie 1019 hPa
Widzialność: 4000 m
Przerywane chmury na wysokości 800 ft
zamglenie

Jednostka miary

Prognoza

Raport powstał 2 godziny i 40 minut temu, godzina 20:04 UTC
Prognoza ważna od 27 godzina 20 UTC do 28 godzina 18 UTC
Wiatr 7 kt od wschodnio-północny wschód
Widzialność: 6000 m
Rozproszone chmury na wysokości 1300 ft
Przejściowo
od 27 godzina 20 UTC do 28 godzina 08 UTC
Widzialność: 1300 m
Przerywane chmury na wysokości 500 ft
Przerywane chmury na wysokości 1100 ft
zamglenie
Informacje na tej stronie internetowej podlegają klauzuli o wyłączeniu odpowiedzialności
Pogoda : Europa Afryka Ameryka Północna Ameryka Południowa Azja Australia-Oceania Inny
Zdjęcia satelitarne 15-dni prognozyKlimatMeteorologia morska Cyklony Błyskawica LotniskoFAQ Języki Kontakt Gazetka O